sensor_id;sensor_type;location;lat;lon;timestamp;temperature;humidity
7684;DHT22;3884;48.616;12.872;2023-05-10T00:01:16;13.70;99.90
7684;DHT22;3884;48.616;12.872;2023-05-10T00:03:43;13.50;99.90
7684;DHT22;3884;48.616;12.872;2023-05-10T00:06:10;13.60;1.00
7684;DHT22;3884;48.616;12.872;2023-05-10T00:08:39;13.60;1.00
7684;DHT22;3884;48.616;12.872;2023-05-10T00:11:05;13.60;1.00
7684;DHT22;3884;48.616;12.872;2023-05-10T00:13:32;13.50;1.00
7684;DHT22;3884;48.616;12.872;2023-05-10T00:15:59;13.30;1.00
7684;DHT22;3884;48.616;12.872;2023-05-10T00:18:26;13.30;1.00
7684;DHT22;3884;48.616;12.872;2023-05-10T00:20:53;13.30;1.00
7684;DHT22;3884;48.616;12.872;2023-05-10T00:23:20;13.30;1.00
7684;DHT22;3884;48.616;12.872;2023-05-10T00:25:48;13.30;1.00
7684;DHT22;3884;48.616;12.872;2023-05-10T00:28:15;13.20;1.00
7684;DHT22;3884;48.616;12.872;2023-05-10T00:30:42;13.10;1.00
7684;DHT22;3884;48.616;12.872;2023-05-10T00:33:09;13.10;1.00
7684;DHT22;3884;48.616;12.872;2023-05-10T00:35:37;13.10;1.00
7684;DHT22;3884;48.616;12.872;2023-05-10T00:38:03;13.10;1.00
7684;DHT22;3884;48.616;12.872;2023-05-10T00:40:30;13.10;1.00
7684;DHT22;3884;48.616;12.872;2023-05-10T00:43:04;13.20;1.00
7684;DHT22;3884;48.616;12.872;2023-05-10T00:45:31;13.20;1.00
7684;DHT22;3884;48.616;12.872;2023-05-10T00:47:59;13.10;1.00
7684;DHT22;3884;48.616;12.872;2023-05-10T00:50:28;12.90;1.00
7684;DHT22;3884;48.616;12.872;2023-05-10T00:52:55;13.00;1.00
7684;DHT22;3884;48.616;12.872;2023-05-10T00:55:22;12.80;1.00
7684;DHT22;3884;48.616;12.872;2023-05-10T00:57:49;12.80;1.00
7684;DHT22;3884;48.616;12.872;2023-05-10T01:00:18;12.90;1.00
7684;DHT22;3884;48.616;12.872;2023-05-10T01:02:45;12.90;1.00
7684;DHT22;3884;48.616;12.872;2023-05-10T01:05:13;12.90;1.00
7684;DHT22;3884;48.616;12.872;2023-05-10T01:07:40;12.80;1.00
7684;DHT22;3884;48.616;12.872;2023-05-10T01:10:08;12.80;1.00
7684;DHT22;3884;48.616;12.872;2023-05-10T01:12:37;12.80;1.00
7684;DHT22;3884;48.616;12.872;2023-05-10T01:15:06;12.80;1.00
7684;DHT22;3884;48.616;12.872;2023-05-10T01:17:36;12.80;1.00
7684;DHT22;3884;48.616;12.872;2023-05-10T01:20:05;12.80;1.00
7684;DHT22;3884;48.616;12.872;2023-05-10T01:23:02;12.80;1.00
7684;DHT22;3884;48.616;12.872;2023-05-10T01:25:56;12.90;1.00
7684;DHT22;3884;48.616;12.872;2023-05-10T01:28:50;12.80;1.00
7684;DHT22;3884;48.616;12.872;2023-05-10T01:31:33;12.80;1.00
7684;DHT22;3884;48.616;12.872;2023-05-10T01:34:07;12.80;1.00
7684;DHT22;3884;48.616;12.872;2023-05-10T01:36:42;12.80;1.00
7684;DHT22;3884;48.616;12.872;2023-05-10T01:39:14;12.90;1.00
7684;DHT22;3884;48.616;12.872;2023-05-10T01:41:49;12.90;1.00
7684;DHT22;3884;48.616;12.872;2023-05-10T01:44:24;13.00;1.00
7684;DHT22;3884;48.616;12.872;2023-05-10T01:46:57;12.90;1.00
7684;DHT22;3884;48.616;12.872;2023-05-10T01:49:31;13.00;1.00
7684;DHT22;3884;48.616;12.872;2023-05-10T01:52:03;13.00;1.00
7684;DHT22;3884;48.616;12.872;2023-05-10T01:54:33;13.10;1.00
7684;DHT22;3884;48.616;12.872;2023-05-10T01:57:03;13.00;1.00
7684;DHT22;3884;48.616;12.872;2023-05-10T01:59:34;12.90;1.00
7684;DHT22;3884;48.616;12.872;2023-05-10T02:02:06;13.00;5.60
7684;DHT22;3884;48.616;12.872;2023-05-10T02:04:39;12.90;96.80
7684;DHT22;3884;48.616;12.872;2023-05-10T02:07:07;13.00;99.90
7684;DHT22;3884;48.616;12.872;2023-05-10T02:09:36;12.90;99.90
7684;DHT22;3884;48.616;12.872;2023-05-10T02:12:05;12.80;99.90
7684;DHT22;3884;48.616;12.872;2023-05-10T02:14:35;12.80;99.90
7684;DHT22;3884;48.616;12.872;2023-05-10T02:17:03;12.60;99.90
7684;DHT22;3884;48.616;12.872;2023-05-10T02:19:31;12.60;99.90
7684;DHT22;3884;48.616;12.872;2023-05-10T02:22:00;12.70;99.90
7684;DHT22;3884;48.616;12.872;2023-05-10T02:24:28;12.80;99.90
7684;DHT22;3884;48.616;12.872;2023-05-10T02:26:56;12.70;1.00
7684;DHT22;3884;48.616;12.872;2023-05-10T02:29:25;12.70;1.00
7684;DHT22;3884;48.616;12.872;2023-05-10T02:31:54;12.60;1.00
7684;DHT22;3884;48.616;12.872;2023-05-10T02:34:23;12.70;1.00
7684;DHT22;3884;48.616;12.872;2023-05-10T02:36:52;12.70;1.00
7684;DHT22;3884;48.616;12.872;2023-05-10T02:39:21;12.60;97.80
7684;DHT22;3884;48.616;12.872;2023-05-10T02:41:49;12.60;90.70
7684;DHT22;3884;48.616;12.872;2023-05-10T02:44:18;12.40;1.00
7684;DHT22;3884;48.616;12.872;2023-05-10T02:46:46;11.90;1.00
7684;DHT22;3884;48.616;12.872;2023-05-10T02:49:13;11.90;1.00
7684;DHT22;3884;48.616;12.872;2023-05-10T02:51:42;11.90;1.00
7684;DHT22;3884;48.616;12.872;2023-05-10T02:54:13;11.90;1.30
7684;DHT22;3884;48.616;12.872;2023-05-10T02:56:47;11.90;99.90
7684;DHT22;3884;48.616;12.872;2023-05-10T02:59:17;11.80;1.00
7684;DHT22;3884;48.616;12.872;2023-05-10T03:01:44;11.80;99.90
7684;DHT22;3884;48.616;12.872;2023-05-10T03:04:12;11.70;1.00
7684;DHT22;3884;48.616;12.872;2023-05-10T03:06:39;11.50;99.90
7684;DHT22;3884;48.616;12.872;2023-05-10T03:09:06;11.60;20.80
7684;DHT22;3884;48.616;12.872;2023-05-10T03:11:47;11.30;1.00
7684;DHT22;3884;48.616;12.872;2023-05-10T03:14:23;11.20;99.90
7684;DHT22;3884;48.616;12.872;2023-05-10T03:16:57;11.00;1.00
7684;DHT22;3884;48.616;12.872;2023-05-10T03:19:32;11.10;99.90
7684;DHT22;3884;48.616;12.872;2023-05-10T03:22:04;11.20;1.00
7684;DHT22;3884;48.616;12.872;2023-05-10T03:24:35;11.20;1.00
7684;DHT22;3884;48.616;12.872;2023-05-10T03:27:05;11.20;1.00
7684;DHT22;3884;48.616;12.872;2023-05-10T03:29:33;11.20;1.00
7684;DHT22;3884;48.616;12.872;2023-05-10T03:32:01;11.20;1.00
7684;DHT22;3884;48.616;12.872;2023-05-10T03:34:30;11.40;1.00
7684;DHT22;3884;48.616;12.872;2023-05-10T03:36:57;11.50;1.00
7684;DHT22;3884;48.616;12.872;2023-05-10T03:39:27;11.30;1.00
7684;DHT22;3884;48.616;12.872;2023-05-10T03:41:57;11.30;1.00
7684;DHT22;3884;48.616;12.872;2023-05-10T03:44:25;11.40;1.00
7684;DHT22;3884;48.616;12.872;2023-05-10T03:46:52;11.50;1.00
7684;DHT22;3884;48.616;12.872;2023-05-10T03:49:19;11.60;1.00
7684;DHT22;3884;48.616;12.872;2023-05-10T03:51:46;11.70;1.00
7684;DHT22;3884;48.616;12.872;2023-05-10T03:54:13;11.70;1.00
7684;DHT22;3884;48.616;12.872;2023-05-10T03:56:40;11.80;1.00
7684;DHT22;3884;48.616;12.872;2023-05-10T03:59:07;11.80;1.00
7684;DHT22;3884;48.616;12.872;2023-05-10T04:01:36;11.80;99.90
7684;DHT22;3884;48.616;12.872;2023-05-10T04:04:03;11.70;1.00
7684;DHT22;3884;48.616;12.872;2023-05-10T04:06:31;11.80;1.00
7684;DHT22;3884;48.616;12.872;2023-05-10T04:08:58;11.70;1.00
7684;DHT22;3884;48.616;12.872;2023-05-10T04:11:27;11.70;1.00
7684;DHT22;3884;48.616;12.872;2023-05-10T04:13:54;11.80;1.00
7684;DHT22;3884;48.616;12.872;2023-05-10T04:16:21;11.80;1.00
7684;DHT22;3884;48.616;12.872;2023-05-10T04:18:49;12.00;1.00
7684;DHT22;3884;48.616;12.872;2023-05-10T04:21:15;11.80;1.00
7684;DHT22;3884;48.616;12.872;2023-05-10T04:23:42;12.00;99.90
7684;DHT22;3884;48.616;12.872;2023-05-10T04:26:09;12.00;99.90
7684;DHT22;3884;48.616;12.872;2023-05-10T04:28:36;12.00;99.90
7684;DHT22;3884;48.616;12.872;2023-05-10T04:31:03;12.10;1.00
7684;DHT22;3884;48.616;12.872;2023-05-10T04:33:31;12.00;1.00
7684;DHT22;3884;48.616;12.872;2023-05-10T04:36:00;12.10;1.00
7684;DHT22;3884;48.616;12.872;2023-05-10T04:38:28;12.10;1.00
7684;DHT22;3884;48.616;12.872;2023-05-10T04:41:03;12.00;1.00
7684;DHT22;3884;48.616;12.872;2023-05-10T04:43:30;12.00;1.00
7684;DHT22;3884;48.616;12.872;2023-05-10T04:45:57;12.00;1.00
7684;DHT22;3884;48.616;12.872;2023-05-10T04:48:24;11.90;52.80
7684;DHT22;3884;48.616;12.872;2023-05-10T04:50:50;11.80;99.90
7684;DHT22;3884;48.616;12.872;2023-05-10T04:53:18;11.60;99.90
7684;DHT22;3884;48.616;12.872;2023-05-10T04:55:45;11.50;99.90
7684;DHT22;3884;48.616;12.872;2023-05-10T04:58:13;11.60;99.90
7684;DHT22;3884;48.616;12.872;2023-05-10T05:00:40;11.60;99.90
7684;DHT22;3884;48.616;12.872;2023-05-10T05:03:07;11.60;99.90
7684;DHT22;3884;48.616;12.872;2023-05-10T05:05:34;11.70;99.90
7684;DHT22;3884;48.616;12.872;2023-05-10T05:08:00;11.80;99.90
7684;DHT22;3884;48.616;12.872;2023-05-10T05:10:29;11.90;99.90
7684;DHT22;3884;48.616;12.872;2023-05-10T05:12:56;12.00;99.90
7684;DHT22;3884;48.616;12.872;2023-05-10T05:15:23;12.00;99.90
7684;DHT22;3884;48.616;12.872;2023-05-10T05:17:49;12.00;99.90
7684;DHT22;3884;48.616;12.872;2023-05-10T05:20:17;12.00;99.90
7684;DHT22;3884;48.616;12.872;2023-05-10T05:22:44;12.10;99.90
7684;DHT22;3884;48.616;12.872;2023-05-10T05:25:11;12.20;99.90
7684;DHT22;3884;48.616;12.872;2023-05-10T05:27:39;12.10;99.90
7684;DHT22;3884;48.616;12.872;2023-05-10T05:30:07;12.20;99.90
7684;DHT22;3884;48.616;12.872;2023-05-10T05:32:34;12.30;99.90
7684;DHT22;3884;48.616;12.872;2023-05-10T05:35:01;12.30;99.90
7684;DHT22;3884;48.616;12.872;2023-05-10T05:37:28;12.40;99.90
7684;DHT22;3884;48.616;12.872;2023-05-10T05:39:54;12.40;99.90
7684;DHT22;3884;48.616;12.872;2023-05-10T05:42:21;12.20;99.90
7684;DHT22;3884;48.616;12.872;2023-05-10T05:44:49;12.30;99.90
7684;DHT22;3884;48.616;12.872;2023-05-10T05:47:16;12.20;99.90
7684;DHT22;3884;48.616;12.872;2023-05-10T05:49:43;12.20;99.90
7684;DHT22;3884;48.616;12.872;2023-05-10T05:52:11;12.20;99.90
7684;DHT22;3884;48.616;12.872;2023-05-10T05:54:39;12.30;99.90
7684;DHT22;3884;48.616;12.872;2023-05-10T05:57:06;12.30;99.90
7684;DHT22;3884;48.616;12.872;2023-05-10T05:59:33;12.30;99.90
7684;DHT22;3884;48.616;12.872;2023-05-10T06:02:01;12.40;99.90
7684;DHT22;3884;48.616;12.872;2023-05-10T06:04:29;12.50;99.90
7684;DHT22;3884;48.616;12.872;2023-05-10T06:06:55;12.50;99.90
7684;DHT22;3884;48.616;12.872;2023-05-10T06:09:22;12.60;99.90
7684;DHT22;3884;48.616;12.872;2023-05-10T06:11:50;12.50;99.90
7684;DHT22;3884;48.616;12.872;2023-05-10T06:14:17;12.70;99.90
7684;DHT22;3884;48.616;12.872;2023-05-10T06:16:43;12.60;99.90
7684;DHT22;3884;48.616;12.872;2023-05-10T06:19:12;12.70;99.90
7684;DHT22;3884;48.616;12.872;2023-05-10T06:21:38;12.90;99.90
7684;DHT22;3884;48.616;12.872;2023-05-10T06:24:06;13.00;99.90
7684;DHT22;3884;48.616;12.872;2023-05-10T06:26:33;13.20;99.90
7684;DHT22;3884;48.616;12.872;2023-05-10T06:29:00;13.30;99.90
7684;DHT22;3884;48.616;12.872;2023-05-10T06:31:27;13.30;99.90
7684;DHT22;3884;48.616;12.872;2023-05-10T06:33:54;13.30;99.90
7684;DHT22;3884;48.616;12.872;2023-05-10T06:36:22;13.50;99.90
7684;DHT22;3884;48.616;12.872;2023-05-10T06:38:50;13.60;99.90
7684;DHT22;3884;48.616;12.872;2023-05-10T06:41:16;13.70;99.90
7684;DHT22;3884;48.616;12.872;2023-05-10T06:43:43;13.80;99.90
7684;DHT22;3884;48.616;12.872;2023-05-10T06:46:10;13.80;99.90
7684;DHT22;3884;48.616;12.872;2023-05-10T06:48:37;13.90;99.90
7684;DHT22;3884;48.616;12.872;2023-05-10T06:51:04;13.90;99.90
7684;DHT22;3884;48.616;12.872;2023-05-10T06:53:32;13.90;99.90
7684;DHT22;3884;48.616;12.872;2023-05-10T06:55:59;13.90;99.90
7684;DHT22;3884;48.616;12.872;2023-05-10T06:58:26;13.90;99.90
7684;DHT22;3884;48.616;12.872;2023-05-10T07:00:53;14.00;99.90
7684;DHT22;3884;48.616;12.872;2023-05-10T07:03:20;14.10;99.90
7684;DHT22;3884;48.616;12.872;2023-05-10T07:05:47;14.00;99.90
7684;DHT22;3884;48.616;12.872;2023-05-10T07:08:14;14.10;99.90
7684;DHT22;3884;48.616;12.872;2023-05-10T07:10:42;14.10;99.90
7684;DHT22;3884;48.616;12.872;2023-05-10T07:13:09;14.00;99.90
7684;DHT22;3884;48.616;12.872;2023-05-10T07:15:36;14.10;99.90
7684;DHT22;3884;48.616;12.872;2023-05-10T07:18:03;14.10;99.90
7684;DHT22;3884;48.616;12.872;2023-05-10T07:20:31;14.10;99.90
7684;DHT22;3884;48.616;12.872;2023-05-10T07:22:58;14.20;99.90
7684;DHT22;3884;48.616;12.872;2023-05-10T07:25:25;14.30;99.90
7684;DHT22;3884;48.616;12.872;2023-05-10T07:27:54;14.40;99.90
7684;DHT22;3884;48.616;12.872;2023-05-10T07:30:20;14.30;99.90
7684;DHT22;3884;48.616;12.872;2023-05-10T07:32:47;14.30;99.90
7684;DHT22;3884;48.616;12.872;2023-05-10T07:35:14;14.60;99.90
7684;DHT22;3884;48.616;12.872;2023-05-10T07:37:41;14.50;99.90
7684;DHT22;3884;48.616;12.872;2023-05-10T07:40:09;14.50;99.90
7684;DHT22;3884;48.616;12.872;2023-05-10T07:42:36;14.30;99.90
7684;DHT22;3884;48.616;12.872;2023-05-10T07:45:06;14.30;99.90
7684;DHT22;3884;48.616;12.872;2023-05-10T07:47:33;14.00;99.90
7684;DHT22;3884;48.616;12.872;2023-05-10T07:50:00;13.70;99.90
7684;DHT22;3884;48.616;12.872;2023-05-10T07:52:27;13.50;99.90
7684;DHT22;3884;48.616;12.872;2023-05-10T07:54:54;13.50;99.90
7684;DHT22;3884;48.616;12.872;2023-05-10T07:57:22;13.50;99.90
7684;DHT22;3884;48.616;12.872;2023-05-10T07:59:49;13.50;99.90
7684;DHT22;3884;48.616;12.872;2023-05-10T08:02:17;13.50;99.90
7684;DHT22;3884;48.616;12.872;2023-05-10T08:04:44;13.50;99.90
7684;DHT22;3884;48.616;12.872;2023-05-10T08:07:11;13.50;99.90
7684;DHT22;3884;48.616;12.872;2023-05-10T08:09:38;13.50;99.90
7684;DHT22;3884;48.616;12.872;2023-05-10T08:12:05;13.30;99.90
7684;DHT22;3884;48.616;12.872;2023-05-10T08:14:32;13.40;99.90
7684;DHT22;3884;48.616;12.872;2023-05-10T08:16:59;13.40;99.90
7684;DHT22;3884;48.616;12.872;2023-05-10T08:19:27;13.40;99.90
7684;DHT22;3884;48.616;12.872;2023-05-10T08:21:54;13.40;99.90
7684;DHT22;3884;48.616;12.872;2023-05-10T08:24:22;13.30;99.90
7684;DHT22;3884;48.616;12.872;2023-05-10T08:26:49;13.30;99.90
7684;DHT22;3884;48.616;12.872;2023-05-10T08:29:16;13.30;99.90
7684;DHT22;3884;48.616;12.872;2023-05-10T08:31:43;13.20;99.90
7684;DHT22;3884;48.616;12.872;2023-05-10T08:34:10;13.10;99.90
7684;DHT22;3884;48.616;12.872;2023-05-10T08:36:38;13.00;99.90
7684;DHT22;3884;48.616;12.872;2023-05-10T08:39:05;13.20;99.90
7684;DHT22;3884;48.616;12.872;2023-05-10T08:41:33;13.10;99.90
7684;DHT22;3884;48.616;12.872;2023-05-10T08:44:04;13.00;99.90
7684;DHT22;3884;48.616;12.872;2023-05-10T08:46:33;13.00;99.90
7684;DHT22;3884;48.616;12.872;2023-05-10T08:49:02;13.00;99.90
7684;DHT22;3884;48.616;12.872;2023-05-10T08:51:34;13.10;99.90
7684;DHT22;3884;48.616;12.872;2023-05-10T08:54:03;13.20;99.90
7684;DHT22;3884;48.616;12.872;2023-05-10T08:56:31;13.00;99.90
7684;DHT22;3884;48.616;12.872;2023-05-10T08:58:58;13.00;99.90
7684;DHT22;3884;48.616;12.872;2023-05-10T09:01:25;13.00;99.90
7684;DHT22;3884;48.616;12.872;2023-05-10T09:03:53;13.10;99.90
7684;DHT22;3884;48.616;12.872;2023-05-10T09:06:20;13.00;99.90
7684;DHT22;3884;48.616;12.872;2023-05-10T09:08:47;13.00;99.90
7684;DHT22;3884;48.616;12.872;2023-05-10T09:11:16;13.00;99.90
7684;DHT22;3884;48.616;12.872;2023-05-10T09:13:44;13.00;99.90
7684;DHT22;3884;48.616;12.872;2023-05-10T09:16:11;13.00;99.90
7684;DHT22;3884;48.616;12.872;2023-05-10T09:18:39;12.90;99.90
7684;DHT22;3884;48.616;12.872;2023-05-10T09:21:06;13.00;99.90
7684;DHT22;3884;48.616;12.872;2023-05-10T09:23:32;13.10;99.90
7684;DHT22;3884;48.616;12.872;2023-05-10T09:26:03;13.20;99.90
7684;DHT22;3884;48.616;12.872;2023-05-10T09:28:33;13.10;99.90
7684;DHT22;3884;48.616;12.872;2023-05-10T09:31:00;13.20;99.90
7684;DHT22;3884;48.616;12.872;2023-05-10T09:33:27;13.10;99.90
7684;DHT22;3884;48.616;12.872;2023-05-10T09:35:54;13.10;99.90
7684;DHT22;3884;48.616;12.872;2023-05-10T09:38:21;13.10;99.90
7684;DHT22;3884;48.616;12.872;2023-05-10T09:40:51;13.10;99.90
7684;DHT22;3884;48.616;12.872;2023-05-10T09:43:20;13.20;99.90
7684;DHT22;3884;48.616;12.872;2023-05-10T09:45:48;13.10;99.90
7684;DHT22;3884;48.616;12.872;2023-05-10T09:48:16;13.20;99.90
7684;DHT22;3884;48.616;12.872;2023-05-10T09:50:43;13.30;99.90
7684;DHT22;3884;48.616;12.872;2023-05-10T09:53:14;13.40;99.90
7684;DHT22;3884;48.616;12.872;2023-05-10T09:55:42;13.60;99.90
7684;DHT22;3884;48.616;12.872;2023-05-10T09:58:12;13.60;99.90
7684;DHT22;3884;48.616;12.872;2023-05-10T10:00:41;13.60;99.90
7684;DHT22;3884;48.616;12.872;2023-05-10T10:03:14;13.70;99.90
7684;DHT22;3884;48.616;12.872;2023-05-10T10:05:43;13.60;99.90
7684;DHT22;3884;48.616;12.872;2023-05-10T10:08:11;13.50;99.90
7684;DHT22;3884;48.616;12.872;2023-05-10T10:10:38;13.50;99.90
7684;DHT22;3884;48.616;12.872;2023-05-10T10:13:08;13.60;99.90
7684;DHT22;3884;48.616;12.872;2023-05-10T10:15:35;13.60;99.90
7684;DHT22;3884;48.616;12.872;2023-05-10T10:18:02;13.70;99.90
7684;DHT22;3884;48.616;12.872;2023-05-10T10:20:31;13.80;99.90
7684;DHT22;3884;48.616;12.872;2023-05-10T10:22:58;13.90;99.90
7684;DHT22;3884;48.616;12.872;2023-05-10T10:25:25;13.90;99.90
7684;DHT22;3884;48.616;12.872;2023-05-10T10:28:03;14.00;99.90
7684;DHT22;3884;48.616;12.872;2023-05-10T10:30:39;14.00;99.90
7684;DHT22;3884;48.616;12.872;2023-05-10T10:36:13;14.10;99.90
7684;DHT22;3884;48.616;12.872;2023-05-10T10:39:00;14.20;99.90
7684;DHT22;3884;48.616;12.872;2023-05-10T10:41:33;14.30;99.90
7684;DHT22;3884;48.616;12.872;2023-05-10T10:44:22;14.30;99.90
7684;DHT22;3884;48.616;12.872;2023-05-10T10:46:59;14.50;99.90
7684;DHT22;3884;48.616;12.872;2023-05-10T10:49:27;14.50;1.00
7684;DHT22;3884;48.616;12.872;2023-05-10T10:52:14;14.60;99.90
7684;DHT22;3884;48.616;12.872;2023-05-10T10:54:45;14.40;42.50
7684;DHT22;3884;48.616;12.872;2023-05-10T10:57:13;14.50;99.90
7684;DHT22;3884;48.616;12.872;2023-05-10T10:59:44;14.50;99.90
7684;DHT22;3884;48.616;12.872;2023-05-10T11:02:34;14.60;1.00
7684;DHT22;3884;48.616;12.872;2023-05-10T11:05:22;14.60;1.00
7684;DHT22;3884;48.616;12.872;2023-05-10T11:07:55;14.70;27.30
7684;DHT22;3884;48.616;12.872;2023-05-10T11:10:23;14.60;1.00
7684;DHT22;3884;48.616;12.872;2023-05-10T11:12:52;14.70;19.40
7684;DHT22;3884;48.616;12.872;2023-05-10T11:15:28;14.70;1.00
7684;DHT22;3884;48.616;12.872;2023-05-10T11:17:54;14.80;1.00
7684;DHT22;3884;48.616;12.872;2023-05-10T11:20:22;15.20;17.00
7684;DHT22;3884;48.616;12.872;2023-05-10T11:22:56;15.30;1.00
7684;DHT22;3884;48.616;12.872;2023-05-10T11:25:26;15.40;1.00
7684;DHT22;3884;48.616;12.872;2023-05-10T11:27:56;15.40;1.00
7684;DHT22;3884;48.616;12.872;2023-05-10T11:30:24;15.50;1.00
7684;DHT22;3884;48.616;12.872;2023-05-10T11:32:51;15.40;99.90
7684;DHT22;3884;48.616;12.872;2023-05-10T11:35:18;15.60;1.00
7684;DHT22;3884;48.616;12.872;2023-05-10T11:37:48;15.70;1.00
7684;DHT22;3884;48.616;12.872;2023-05-10T11:40:18;15.60;1.00
7684;DHT22;3884;48.616;12.872;2023-05-10T11:42:45;15.70;99.90
7684;DHT22;3884;48.616;12.872;2023-05-10T11:45:12;15.60;1.00
7684;DHT22;3884;48.616;12.872;2023-05-10T11:47:39;15.60;1.00
7684;DHT22;3884;48.616;12.872;2023-05-10T11:50:09;15.60;99.90
7684;DHT22;3884;48.616;12.872;2023-05-10T11:52:37;15.40;99.90
7684;DHT22;3884;48.616;12.872;2023-05-10T11:55:05;15.30;99.90
7684;DHT22;3884;48.616;12.872;2023-05-10T11:57:33;15.30;99.90
7684;DHT22;3884;48.616;12.872;2023-05-10T12:00:00;15.30;1.00
7684;DHT22;3884;48.616;12.872;2023-05-10T12:02:33;15.40;1.00
7684;DHT22;3884;48.616;12.872;2023-05-10T12:05:00;15.50;1.00
7684;DHT22;3884;48.616;12.872;2023-05-10T12:07:28;15.50;99.90
7684;DHT22;3884;48.616;12.872;2023-05-10T12:10:05;15.50;1.00
7684;DHT22;3884;48.616;12.872;2023-05-10T12:12:39;15.80;99.90
7684;DHT22;3884;48.616;12.872;2023-05-10T12:15:11;15.80;99.90
7684;DHT22;3884;48.616;12.872;2023-05-10T12:17:38;16.00;1.00
7684;DHT22;3884;48.616;12.872;2023-05-10T12:20:16;15.80;1.00
7684;DHT22;3884;48.616;12.872;2023-05-10T12:22:49;15.90;99.90
7684;DHT22;3884;48.616;12.872;2023-05-10T12:25:16;15.80;1.00
7684;DHT22;3884;48.616;12.872;2023-05-10T12:27:57;15.70;99.90
7684;DHT22;3884;48.616;12.872;2023-05-10T12:30:27;15.80;1.00
7684;DHT22;3884;48.616;12.872;2023-05-10T12:33:00;15.90;1.00
7684;DHT22;3884;48.616;12.872;2023-05-10T12:35:30;15.90;91.80
7684;DHT22;3884;48.616;12.872;2023-05-10T12:37:57;15.70;54.10
7684;DHT22;3884;48.616;12.872;2023-05-10T12:40:24;15.70;40.90
7684;DHT22;3884;48.616;12.872;2023-05-10T12:42:53;15.70;99.90
7684;DHT22;3884;48.616;12.872;2023-05-10T12:45:20;15.80;1.00
7684;DHT22;3884;48.616;12.872;2023-05-10T12:47:51;15.70;99.90
7684;DHT22;3884;48.616;12.872;2023-05-10T12:50:40;15.60;1.00
7684;DHT22;3884;48.616;12.872;2023-05-10T12:53:10;15.70;1.00
7684;DHT22;3884;48.616;12.872;2023-05-10T12:55:39;15.80;1.00
7684;DHT22;3884;48.616;12.872;2023-05-10T12:58:13;15.80;99.90
7684;DHT22;3884;48.616;12.872;2023-05-10T13:00:44;16.00;52.30
7684;DHT22;3884;48.616;12.872;2023-05-10T13:03:16;15.90;37.70
7684;DHT22;3884;48.616;12.872;2023-05-10T13:05:43;15.90;1.00
7684;DHT22;3884;48.616;12.872;2023-05-10T13:08:10;15.90;1.00
7684;DHT22;3884;48.616;12.872;2023-05-10T13:10:37;15.90;99.90
7684;DHT22;3884;48.616;12.872;2023-05-10T13:13:04;16.10;1.60
7684;DHT22;3884;48.616;12.872;2023-05-10T13:15:34;16.30;1.00
7684;DHT22;3884;48.616;12.872;2023-05-10T13:18:01;16.30;1.00
7684;DHT22;3884;48.616;12.872;2023-05-10T13:20:32;16.40;1.00
7684;DHT22;3884;48.616;12.872;2023-05-10T13:22:59;16.40;1.00
7684;DHT22;3884;48.616;12.872;2023-05-10T13:25:26;16.20;1.00
7684;DHT22;3884;48.616;12.872;2023-05-10T13:27:53;15.80;1.00
7684;DHT22;3884;48.616;12.872;2023-05-10T13:30:21;15.80;99.90
7684;DHT22;3884;48.616;12.872;2023-05-10T13:32:50;16.20;99.90
7684;DHT22;3884;48.616;12.872;2023-05-10T13:35:17;16.40;1.00
7684;DHT22;3884;48.616;12.872;2023-05-10T13:37:44;16.60;1.00
7684;DHT22;3884;48.616;12.872;2023-05-10T13:40:11;16.00;1.00
7684;DHT22;3884;48.616;12.872;2023-05-10T13:42:38;16.00;1.00
7684;DHT22;3884;48.616;12.872;2023-05-10T13:45:07;16.00;99.90
7684;DHT22;3884;48.616;12.872;2023-05-10T13:47:34;16.30;1.00
7684;DHT22;3884;48.616;12.872;2023-05-10T13:50:02;16.50;99.90
7684;DHT22;3884;48.616;12.872;2023-05-10T13:52:29;16.70;99.90
7684;DHT22;3884;48.616;12.872;2023-05-10T13:54:56;16.70;1.00
7684;DHT22;3884;48.616;12.872;2023-05-10T13:57:23;16.80;1.00
7684;DHT22;3884;48.616;12.872;2023-05-10T13:59:49;17.00;67.00
7684;DHT22;3884;48.616;12.872;2023-05-10T14:02:16;17.10;1.00
7684;DHT22;3884;48.616;12.872;2023-05-10T14:04:43;17.10;99.90
7684;DHT22;3884;48.616;12.872;2023-05-10T14:07:14;17.20;99.90
7684;DHT22;3884;48.616;12.872;2023-05-10T14:09:41;17.40;6.80
7684;DHT22;3884;48.616;12.872;2023-05-10T14:12:08;17.40;99.90
7684;DHT22;3884;48.616;12.872;2023-05-10T14:14:35;17.60;37.80
7684;DHT22;3884;48.616;12.872;2023-05-10T14:17:02;17.60;1.00
7684;DHT22;3884;48.616;12.872;2023-05-10T14:19:29;17.70;1.00
7684;DHT22;3884;48.616;12.872;2023-05-10T14:21:58;17.70;1.00
7684;DHT22;3884;48.616;12.872;2023-05-10T14:24:26;17.80;1.00
7684;DHT22;3884;48.616;12.872;2023-05-10T14:26:53;17.80;99.90
7684;DHT22;3884;48.616;12.872;2023-05-10T14:30:18;17.70;99.90
7684;DHT22;3884;48.616;12.872;2023-05-10T14:32:34;17.70;99.90
7684;DHT22;3884;48.616;12.872;2023-05-10T14:35:02;17.70;99.90
7684;DHT22;3884;48.616;12.872;2023-05-10T14:37:29;17.60;99.90
7684;DHT22;3884;48.616;12.872;2023-05-10T14:39:57;17.50;1.00
7684;DHT22;3884;48.616;12.872;2023-05-10T14:42:24;17.20;1.00
7684;DHT22;3884;48.616;12.872;2023-05-10T14:44:51;17.20;1.00
7684;DHT22;3884;48.616;12.872;2023-05-10T14:47:19;16.90;99.90
7684;DHT22;3884;48.616;12.872;2023-05-10T14:49:45;17.10;1.00
7684;DHT22;3884;48.616;12.872;2023-05-10T14:52:12;17.20;99.90
7684;DHT22;3884;48.616;12.872;2023-05-10T14:54:39;17.20;1.00
7684;DHT22;3884;48.616;12.872;2023-05-10T14:57:08;17.10;1.00
7684;DHT22;3884;48.616;12.872;2023-05-10T14:59:35;17.00;1.00
7684;DHT22;3884;48.616;12.872;2023-05-10T15:02:02;17.00;1.00
7684;DHT22;3884;48.616;12.872;2023-05-10T15:04:29;16.90;99.90
7684;DHT22;3884;48.616;12.872;2023-05-10T15:06:56;16.90;1.00
7684;DHT22;3884;48.616;12.872;2023-05-10T15:09:25;16.80;99.90
7684;DHT22;3884;48.616;12.872;2023-05-10T15:11:53;16.80;99.90
7684;DHT22;3884;48.616;12.872;2023-05-10T15:14:21;16.90;99.90
7684;DHT22;3884;48.616;12.872;2023-05-10T15:16:48;16.90;99.90
7684;DHT22;3884;48.616;12.872;2023-05-10T15:19:15;16.70;99.90
7684;DHT22;3884;48.616;12.872;2023-05-10T15:21:42;16.50;1.00
7684;DHT22;3884;48.616;12.872;2023-05-10T15:24:10;16.30;1.00
7684;DHT22;3884;48.616;12.872;2023-05-10T15:26:36;16.20;99.90
7684;DHT22;3884;48.616;12.872;2023-05-10T15:29:03;16.10;1.00
7684;DHT22;3884;48.616;12.872;2023-05-10T15:31:31;16.10;99.90
7684;DHT22;3884;48.616;12.872;2023-05-10T15:34:00;16.10;99.90
7684;DHT22;3884;48.616;12.872;2023-05-10T15:36:27;16.10;1.00
7684;DHT22;3884;48.616;12.872;2023-05-10T15:38:54;16.10;1.00
7684;DHT22;3884;48.616;12.872;2023-05-10T15:41:21;15.80;99.90
7684;DHT22;3884;48.616;12.872;2023-05-10T15:43:49;15.80;1.00
7684;DHT22;3884;48.616;12.872;2023-05-10T15:46:15;15.60;1.00
7684;DHT22;3884;48.616;12.872;2023-05-10T15:48:44;15.40;1.00
7684;DHT22;3884;48.616;12.872;2023-05-10T15:51:11;15.40;1.00
7684;DHT22;3884;48.616;12.872;2023-05-10T15:53:37;15.30;1.00
7684;DHT22;3884;48.616;12.872;2023-05-10T15:56:05;15.20;1.00
7684;DHT22;3884;48.616;12.872;2023-05-10T15:58:32;15.10;99.90
7684;DHT22;3884;48.616;12.872;2023-05-10T16:00:59;15.00;1.00
7684;DHT22;3884;48.616;12.872;2023-05-10T16:03:26;15.00;99.90
7684;DHT22;3884;48.616;12.872;2023-05-10T16:05:54;14.80;99.90